Time;durP1;ratioP1;P1;durP2;ratioP2;P2;SDS_P1;SDS_P2;PMS_P1;PMS_P2;Temp;Humidity;BMP_temperature;BMP_pressure;BME280_temperature;BME280_humidity;BME280_pressure;Samples;Min_cycle;Max_cycle;Signal;HPM_P1;HPM_P2
2023/08/14 00:02:22;;;;;;;8.93;3.78;;;25.40;99.90;;;;;;7414217;19;19925;-79
2023/08/14 00:04:50;;;;;;;7.60;3.78;;;25.30;99.90;;;;;;7416748;19;19918;-79
2023/08/14 00:07:16;;;;;;;8.65;4.00;;;25.40;99.90;;;;;;7419584;19;19959;-79
2023/08/14 00:09:42;;;;;;;7.60;3.65;;;25.40;99.90;;;;;;7414858;19;19915;-79
2023/08/14 00:12:08;;;;;;;9.50;4.28;;;25.30;99.90;;;;;;7417019;19;19926;-79
2023/08/14 00:14:33;;;;;;;7.57;4.03;;;25.30;99.90;;;;;;7415351;19;19937;-80
2023/08/14 00:16:59;;;;;;;9.43;4.05;;;25.20;99.90;;;;;;7392286;19;19939;-79
2023/08/14 00:19:25;;;;;;;7.28;4.20;;;25.20;99.90;;;;;;7414391;19;19956;-78
2023/08/14 00:21:52;;;;;;;10.77;4.35;;;25.20;99.90;;;;;;7414605;19;19923;-78
2023/08/14 00:24:18;;;;;;;9.00;4.03;;;25.10;99.90;;;;;;7415850;19;19958;-79
2023/08/14 00:26:43;;;;;;;10.05;4.10;;;25.20;99.90;;;;;;7416262;19;20442;-78
2023/08/14 00:29:09;;;;;;;11.40;4.63;;;25.20;99.90;;;;;;7414809;19;19911;-79
2023/08/14 00:31:35;;;;;;;6.53;3.85;;;25.10;99.90;;;;;;7417664;19;19918;-81
2023/08/14 00:34:01;;;;;;;15.77;5.35;;;25.10;99.90;;;;;;7415844;19;19922;-78
2023/08/14 00:36:29;;;;;;;9.15;3.65;;;25.10;99.90;;;;;;7418960;19;19919;-79
2023/08/14 00:38:55;;;;;;;7.75;4.07;;;25.10;99.90;;;;;;7420655;19;19918;-79
2023/08/14 00:41:24;;;;;;;9.52;5.05;;;25.00;99.90;;;;;;7417147;19;19910;-79
2023/08/14 00:43:51;;;;;;;11.48;4.05;;;25.00;99.90;;;;;;7419085;19;19935;-79
2023/08/14 00:46:18;;;;;;;9.18;4.18;;;25.00;99.90;;;;;;7418045;19;19945;-79
2023/08/14 00:48:44;;;;;;;10.57;3.67;;;25.00;99.90;;;;;;7417605;19;19914;-79
2023/08/14 00:51:10;;;;;;;8.15;4.03;;;24.90;99.90;;;;;;7414733;19;20354;-78
2023/08/14 00:53:37;;;;;;;7.97;4.50;;;24.90;99.90;;;;;;7414354;19;20327;-79
2023/08/14 00:56:04;;;;;;;9.27;3.90;;;24.90;99.90;;;;;;7416654;19;19925;-79
2023/08/14 00:58:30;;;;;;;7.72;4.38;;;24.90;99.90;;;;;;7414149;19;19915;-78
2023/08/14 01:00:58;;;;;;;10.90;4.50;;;24.80;99.90;;;;;;7384979;19;19931;-79
2023/08/14 01:03:25;;;;;;;11.90;4.88;;;24.80;99.90;;;;;;7410607;19;20014;-79
2023/08/14 01:05:51;;;;;;;12.25;4.32;;;24.80;99.90;;;;;;7416559;19;20014;-79
2023/08/14 01:08:17;;;;;;;8.60;4.10;;;24.80;99.90;;;;;;7410643;19;19941;-79
2023/08/14 01:10:51;;;;;;;8.60;4.28;;;24.80;99.90;;;;;;7417516;19;19918;-78
2023/08/14 01:13:23;;;;;;;8.77;4.43;;;24.70;99.90;;;;;;7409507;19;20625;-78
2023/08/14 01:15:55;;;;;;;7.05;4.22;;;24.70;99.90;;;;;;7413310;19;20247;-77
2023/08/14 01:18:24;;;;;;;12.30;4.68;;;24.70;99.90;;;;;;7413101;19;19927;-79
2023/08/14 01:21:30;;;;;;;9.70;4.90;;;24.80;99.90;;;;;;7416788;19;19931;-79
2023/08/14 01:24:29;;;;;;;8.88;4.15;;;24.80;99.90;;;;;;7415858;19;20334;-79
2023/08/14 01:26:55;;;;;;;8.93;4.25;;;24.70;99.90;;;;;;7416307;19;19910;-78
2023/08/14 01:29:21;;;;;;;8.18;4.30;;;24.70;99.90;;;;;;7412962;19;19919;-78
2023/08/14 01:31:48;;;;;;;10.13;3.90;;;24.70;99.90;;;;;;7417340;19;19948;-80
2023/08/14 01:34:15;;;;;;;8.15;3.70;;;24.70;99.90;;;;;;7415789;19;19914;-78
2023/08/14 01:36:49;;;;;;;;;;;24.70;99.90;;;;;;7421321;19;19918;-79
2023/08/14 01:39:21;;;;;;;11.13;4.18;;;24.70;99.90;;;;;;7416660;19;19915;-80
2023/08/14 01:42:18;;;;;;;8.75;3.85;;;24.70;99.90;;;;;;7413307;19;19914;-78
2023/08/14 01:44:48;;;;;;;8.30;3.58;;;24.70;99.90;;;;;;7399913;19;19917;-78
2023/08/14 01:47:16;;;;;;;8.55;3.85;;;24.70;99.90;;;;;;7409636;19;19910;-79
2023/08/14 01:49:45;;;;;;;13.02;4.57;;;24.60;99.90;;;;;;7412887;19;20083;-77
2023/08/14 01:52:11;;;;;;;6.53;3.97;;;24.60;99.90;;;;;;7411842;19;19919;-77
2023/08/14 01:54:38;;;;;;;7.35;3.92;;;24.70;99.90;;;;;;7414296;19;19918;-78
2023/08/14 01:57:04;;;;;;;9.55;3.72;;;24.60;99.90;;;;;;7408845;19;19915;-77
2023/08/14 01:59:42;;;;;;;7.18;3.50;;;24.60;99.90;;;;;;7412508;19;19978;-77
2023/08/14 02:02:13;;;;;;;7.75;3.78;;;24.60;99.90;;;;;;7412818;19;19921;-78
2023/08/14 02:04:39;;;;;;;7.75;3.85;;;24.60;99.90;;;;;;7412850;19;19914;-78
2023/08/14 02:07:11;;;;;;;;;;;24.60;99.90;;;;;;7412130;19;19922;-77
2023/08/14 02:09:37;;;;;;;9.07;3.63;;;24.60;99.90;;;;;;7409877;19;19923;-77
2023/08/14 02:12:04;;;;;;;7.57;3.45;;;24.60;99.90;;;;;;7409713;19;19923;-78
2023/08/14 02:14:31;;;;;;;7.75;3.60;;;24.50;99.90;;;;;;7393153;19;19935;-79
2023/08/14 02:16:57;;;;;;;7.97;3.53;;;24.50;99.90;;;;;;7413545;19;20351;-78
2023/08/14 02:19:23;;;;;;;7.28;3.40;;;24.50;99.90;;;;;;7415094;19;19938;-78
2023/08/14 02:21:49;;;;;;;7.40;3.38;;;24.50;99.90;;;;;;7415279;19;19919;-78
2023/08/14 02:24:15;;;;;;;6.18;3.20;;;24.40;99.90;;;;;;7410663;19;19918;-78
2023/08/14 02:26:41;;;;;;;8.18;3.38;;;24.40;99.90;;;;;;7374545;19;19922;-78
2023/08/14 02:29:10;;;;;;;6.63;3.53;;;24.40;99.90;;;;;;7409493;19;20278;-78
2023/08/14 02:31:36;;;;;;;8.45;3.83;;;24.40;99.90;;;;;;7412975;19;19925;-78
2023/08/14 02:34:05;;;;;;;9.38;3.38;;;24.40;99.90;;;;;;7417757;19;19950;-79
2023/08/14 02:36:31;;;;;;;7.13;3.95;;;24.40;99.90;;;;;;7421757;19;19914;-80
2023/08/14 02:38:57;;;;;;;7.25;3.30;;;24.30;99.90;;;;;;7419123;19;19941;-78
2023/08/14 02:41:23;;;;;;;8.95;4.07;;;24.30;99.90;;;;;;7419478;19;19918;-79
2023/08/14 02:43:52;;;;;;;7.53;3.70;;;24.30;99.90;;;;;;7416401;19;20693;-79
2023/08/14 02:46:17;;;;;;;7.10;3.50;;;24.30;99.90;;;;;;7414473;19;19982;-79
2023/08/14 02:48:45;;;;;;;9.48;3.58;;;24.30;99.90;;;;;;7417502;19;19930;-79
2023/08/14 02:51:11;;;;;;;11.18;4.00;;;24.40;99.90;;;;;;7416845;19;19958;-79
2023/08/14 02:53:36;;;;;;;8.38;3.45;;;24.30;99.90;;;;;;7415750;19;19919;-79
2023/08/14 02:56:03;;;;;;;7.13;3.72;;;24.30;99.90;;;;;;7413598;19;19930;-79
2023/08/14 02:58:30;;;;;;;9.82;4.03;;;24.30;99.90;;;;;;7413622;19;19923;-78
2023/08/14 03:00:56;;;;;;;9.68;3.60;;;24.30;99.90;;;;;;7415316;19;19919;-78
2023/08/14 03:03:22;;;;;;;10.13;3.67;;;24.30;99.90;;;;;;7412046;19;24981;-77
2023/08/14 03:05:48;;;;;;;8.05;3.88;;;24.30;99.90;;;;;;7348050;19;19922;-78
2023/08/14 03:08:13;;;;;;;7.25;3.70;;;24.20;99.90;;;;;;7408654;19;20147;-78
2023/08/14 03:10:40;;;;;;;8.45;3.72;;;24.20;99.90;;;;;;7412963;19;19918;-79
2023/08/14 03:13:06;;;;;;;9.45;3.58;;;24.20;99.90;;;;;;7376450;19;19941;-78
2023/08/14 03:15:32;;;;;;;8.85;3.80;;;24.20;99.90;;;;;;7415088;19;19915;-78
2023/08/14 03:17:57;;;;;;;7.38;3.53;;;24.30;99.90;;;;;;7413081;19;19921;-78
2023/08/14 03:20:23;;;;;;;9.40;3.67;;;24.30;99.90;;;;;;7413071;19;21198;-79
2023/08/14 03:22:49;;;;;;;9.60;3.47;;;24.30;99.90;;;;;;7411991;19;19926;-78
2023/08/14 03:25:15;;;;;;;8.18;3.47;;;24.30;99.90;;;;;;7411246;19;19930;-78
2023/08/14 03:27:40;;;;;;;8.50;3.70;;;24.30;99.90;;;;;;7414059;19;19961;-79
2023/08/14 03:30:07;;;;;;;8.48;3.92;;;24.30;99.90;;;;;;7410614;19;19950;-78
2023/08/14 03:32:33;;;;;;;7.28;3.60;;;24.30;99.90;;;;;;7411639;19;19922;-79
2023/08/14 03:34:59;;;;;;;8.57;3.80;;;24.40;99.90;;;;;;7412486;19;19915;-79
2023/08/14 03:37:25;;;;;;;9.27;4.03;;;24.30;99.90;;;;;;7417277;19;19933;-79
2023/08/14 03:39:50;;;;;;;7.45;4.10;;;24.30;99.90;;;;;;7411196;19;19926;-79
2023/08/14 03:42:16;;;;;;;7.88;3.83;;;24.30;99.90;;;;;;7423177;19;19919;-79
2023/08/14 03:44:42;;;;;;;9.63;3.85;;;24.20;99.90;;;;;;7420559;19;20242;-79
2023/08/14 03:47:08;;;;;;;10.27;3.60;;;24.20;99.90;;;;;;7416549;19;19928;-78
2023/08/14 03:49:34;;;;;;;8.93;3.50;;;24.10;99.90;;;;;;7415719;19;20243;-79
2023/08/14 03:51:59;;;;;;;7.30;3.55;;;24.10;99.90;;;;;;7415599;19;19936;-78
2023/08/14 03:54:25;;;;;;;6.95;3.30;;;24.10;99.90;;;;;;7414050;19;20501;-78
2023/08/14 03:56:52;;;;;;;7.43;3.20;;;24.00;99.90;;;;;;7395161;19;19970;-78
2023/08/14 03:59:18;;;;;;;8.60;3.28;;;24.10;99.90;;;;;;7416269;19;19922;-78
2023/08/14 04:01:44;;;;;;;7.80;3.80;;;24.00;99.90;;;;;;7418065;19;19982;-78
2023/08/14 04:04:10;;;;;;;7.15;3.55;;;24.10;99.90;;;;;;7391463;19;19923;-80
2023/08/14 04:06:37;;;;;;;8.77;3.47;;;24.00;99.90;;;;;;7423660;19;19939;-79
2023/08/14 04:09:03;;;;;;;7.70;3.58;;;24.00;99.90;;;;;;7415833;19;19929;-78
2023/08/14 04:11:30;;;;;;;7.20;3.00;;;24.00;99.90;;;;;;7416711;19;20339;-81
2023/08/14 04:13:56;;;;;;;8.48;3.47;;;23.90;99.90;;;;;;7415278;19;20024;-78
2023/08/14 04:16:22;;;;;;;7.63;3.30;;;23.90;99.90;;;;;;7412886;19;19934;-79
2023/08/14 04:18:48;;;;;;;8.05;3.72;;;23.90;99.90;;;;;;7415306;19;19926;-77
2023/08/14 04:21:14;;;;;;;6.57;3.65;;;23.90;99.90;;;;;;7409381;19;19954;-78
2023/08/14 04:23:40;;;;;;;7.70;3.40;;;24.00;99.90;;;;;;7416628;19;19918;-78
2023/08/14 04:26:07;;;;;;;7.95;3.35;;;24.00;99.90;;;;;;7413400;19;19926;-78
2023/08/14 04:28:33;;;;;;;9.77;3.63;;;24.00;99.90;;;;;;7416827;19;19991;-78
2023/08/14 04:30:59;;;;;;;10.05;3.90;;;24.10;99.90;;;;;;7417310;19;19931;-78
2023/08/14 04:33:24;;;;;;;8.45;3.33;;;24.10;99.90;;;;;;7414037;19;19926;-78
2023/08/14 04:35:50;;;;;;;7.95;3.20;;;24.10;99.90;;;;;;7420176;19;20369;-78
2023/08/14 04:38:16;;;;;;;8.35;3.38;;;24.10;99.90;;;;;;7412508;19;19934;-79
2023/08/14 04:40:42;;;;;;;8.00;3.42;;;24.00;99.90;;;;;;7416052;19;19911;-78
2023/08/14 04:43:07;;;;;;;10.52;4.50;;;24.00;99.90;;;;;;7413987;19;19923;-78
2023/08/14 04:45:33;;;;;;;9.48;3.33;;;24.00;99.90;;;;;;7417487;19;20268;-79
2023/08/14 04:47:59;;;;;;;8.75;3.15;;;23.90;99.90;;;;;;7416393;19;19918;-78
2023/08/14 04:50:25;;;;;;;8.30;3.70;;;23.90;99.90;;;;;;7381757;19;19926;-79
2023/08/14 04:52:51;;;;;;;7.57;4.03;;;23.90;99.90;;;;;;7415888;19;19911;-78
2023/08/14 04:55:18;;;;;;;7.75;4.25;;;23.90;99.90;;;;;;7415030;19;19958;-77
2023/08/14 04:57:43;;;;;;;7.95;3.63;;;23.80;99.90;;;;;;7412717;19;19914;-78
2023/08/14 05:00:10;;;;;;;9.43;3.40;;;23.80;99.90;;;;;;7414311;19;19915;-79
2023/08/14 05:02:37;;;;;;;;;;;23.80;99.90;;;;;;7420296;19;19951;-78
2023/08/14 05:05:03;;;;;;;7.93;3.80;;;23.80;99.90;;;;;;7413030;19;20544;-77
2023/08/14 05:07:28;;;;;;;6.72;3.58;;;23.90;99.90;;;;;;7395012;19;19937;-78
2023/08/14 05:09:54;;;;;;;9.00;4.25;;;23.90;99.90;;;;;;7417964;19;20021;-78
2023/08/14 05:12:20;;;;;;;7.20;3.53;;;24.00;99.90;;;;;;7418458;19;19923;-79
2023/08/14 05:14:46;;;;;;;6.57;3.35;;;24.00;99.90;;;;;;7412734;19;19917;-78
2023/08/14 05:17:12;;;;;;;8.43;3.20;;;23.90;99.90;;;;;;7390039;19;20653;-80
2023/08/14 05:19:37;;;;;;;7.30;3.63;;;23.90;99.90;;;;;;7415569;19;22047;-78
2023/08/14 05:22:03;;;;;;;7.75;4.05;;;24.00;99.90;;;;;;7413513;19;20287;-79
2023/08/14 05:24:29;;;;;;;7.47;3.50;;;24.10;99.90;;;;;;7417885;19;19919;-79
2023/08/14 05:26:55;;;;;;;9.77;3.80;;;24.10;99.90;;;;;;7424217;19;19919;-80
2023/08/14 05:29:21;;;;;;;9.48;3.80;;;24.20;99.90;;;;;;7421934;19;19937;-81
2023/08/14 05:31:50;;;;;;;8.35;3.83;;;24.20;99.90;;;;;;7424524;19;19926;-80
2023/08/14 05:34:16;;;;;;;7.93;3.38;;;24.30;99.90;;;;;;7421381;19;19940;-80
2023/08/14 05:36:42;;;;;;;6.93;3.38;;;24.30;99.90;;;;;;7420521;19;19982;-80
2023/08/14 05:39:09;;;;;;;9.48;3.28;;;24.30;99.90;;;;;;7422068;19;19919;-79
2023/08/14 05:41:35;;;;;;;11.10;4.07;;;24.30;99.90;;;;;;7426079;19;19911;-79
2023/08/14 05:44:01;;;;;;;8.82;3.65;;;24.40;99.90;;;;;;7424733;19;19915;-79
2023/08/14 05:46:27;;;;;;;10.18;4.30;;;24.50;99.90;;;;;;7422025;19;19955;-80
2023/08/14 05:48:53;;;;;;;9.70;3.75;;;24.40;99.90;;;;;;7423767;19;19918;-80
2023/08/14 05:51:18;;;;;;;9.00;3.85;;;24.40;99.90;;;;;;7419953;19;19914;-79
2023/08/14 05:53:44;;;;;;;7.32;3.40;;;24.40;99.90;;;;;;7418477;19;19910;-79
2023/08/14 05:56:10;;;;;;;6.72;3.28;;;24.50;99.90;;;;;;7420375;19;19922;-79
2023/08/14 05:58:36;;;;;;;8.30;3.78;;;24.50;99.90;;;;;;7399012;19;19940;-79
2023/08/14 06:01:02;;;;;;;10.40;3.72;;;24.50;99.90;;;;;;7418165;19;19915;-79
2023/08/14 06:03:28;;;;;;;10.60;3.70;;;24.50;99.90;;;;;;7415351;19;19933;-78
2023/08/14 06:05:54;;;;;;;9.02;3.85;;;24.70;99.90;;;;;;7395337;19;19922;-79
2023/08/14 06:08:20;;;;;;;10.88;4.43;;;24.70;99.90;;;;;;7412105;19;19921;-80
2023/08/14 06:10:46;;;;;;;7.00;3.55;;;24.70;99.90;;;;;;7416256;19;19906;-79
2023/08/14 06:13:12;;;;;;;10.00;3.80;;;24.80;99.90;;;;;;7410633;19;19956;-79
2023/08/14 06:15:37;;;;;;;8.75;3.15;;;24.90;99.90;;;;;;7414659;19;19966;-78
2023/08/14 06:18:04;;;;;;;10.52;3.80;;;25.00;99.90;;;;;;7414216;19;19978;-79
2023/08/14 06:20:29;;;;;;;11.75;4.20;;;25.00;99.90;;;;;;7416923;19;19926;-79
2023/08/14 06:22:56;;;;;;;8.00;3.78;;;25.00;99.90;;;;;;7413549;19;19968;-79
2023/08/14 06:25:22;;;;;;;11.55;3.80;;;25.20;99.90;;;;;;7411168;19;19963;-79
2023/08/14 06:27:48;;;;;;;7.93;3.70;;;25.20;99.90;;;;;;7411857;19;19910;-79
2023/08/14 06:30:14;;;;;;;9.52;4.10;;;25.30;99.90;;;;;;7413187;19;19921;-79
2023/08/14 06:32:41;;;;;;;7.95;3.50;;;25.30;99.90;;;;;;7416586;19;19922;-79
2023/08/14 06:35:08;;;;;;;8.05;3.83;;;25.30;99.90;;;;;;7410818;19;19922;-78
2023/08/14 06:37:35;;;;;;;8.00;3.65;;;25.30;99.90;;;;;;7411487;19;19914;-79
2023/08/14 06:40:01;;;;;;;7.50;3.80;;;25.30;99.90;;;;;;7415433;19;19931;-79
2023/08/14 06:42:26;;;;;;;8.35;3.70;;;25.40;99.90;;;;;;7403909;19;20730;-79
2023/08/14 06:44:52;;;;;;;8.88;3.47;;;25.50;99.90;;;;;;7406306;19;19915;-79
2023/08/14 06:47:18;;;;;;;8.20;3.58;;;25.60;99.80;;;;;;7405205;19;19990;-78
2023/08/14 06:49:44;;;;;;;7.30;3.28;;;25.60;99.50;;;;;;7415139;19;19915;-79
2023/08/14 06:52:10;;;;;;;10.07;3.53;;;25.60;99.10;;;;;;7408019;19;19918;-79
2023/08/14 06:54:36;;;;;;;6.93;2.97;;;25.50;98.30;;;;;;7414325;19;19915;-79
2023/08/14 06:57:02;;;;;;;7.55;3.63;;;25.60;99.20;;;;;;7414077;19;20438;-77
2023/08/14 06:59:30;;;;;;;7.03;3.53;;;25.70;98.40;;;;;;7411388;19;19950;-79
2023/08/14 07:01:57;;;;;;;7.43;3.28;;;25.90;98.30;;;;;;7410410;19;19922;-79
2023/08/14 07:04:23;;;;;;;7.47;3.60;;;25.90;97.90;;;;;;7412542;19;19942;-79
2023/08/14 07:06:48;;;;;;;8.15;3.30;;;26.00;97.40;;;;;;7411140;19;19911;-79
2023/08/14 07:09:16;;;;;;;8.07;3.20;;;26.10;97.10;;;;;;7412012;19;19919;-79
2023/08/14 07:11:42;;;;;;;10.57;3.50;;;26.00;96.60;;;;;;7412211;19;19919;-78
2023/08/14 07:14:08;;;;;;;9.77;3.47;;;26.00;97.20;;;;;;7411431;19;19910;-79
2023/08/14 07:16:34;;;;;;;13.45;4.03;;;26.10;96.90;;;;;;7414208;19;20440;-78
2023/08/14 07:19:01;;;;;;;10.30;3.15;;;26.10;96.40;;;;;;7414770;19;19982;-79
2023/08/14 07:21:28;;;;;;;10.00;3.08;;;26.20;96.50;;;;;;7411277;19;19926;-79
2023/08/14 07:23:54;;;;;;;6.13;2.70;;;26.10;96.10;;;;;;7414466;19;19917;-79
2023/08/14 07:26:20;;;;;;;8.82;3.15;;;26.20;96.20;;;;;;7412363;19;20035;-78
2023/08/14 07:28:46;;;;;;;6.72;2.65;;;26.20;96.20;;;;;;7414030;19;20329;-78
2023/08/14 07:31:12;;;;;;;8.32;3.05;;;26.40;95.20;;;;;;7356016;19;20322;-78
2023/08/14 07:33:38;;;;;;;6.32;2.85;;;26.30;95.20;;;;;;7410430;19;19951;-79
2023/08/14 07:36:05;;;;;;;5.95;2.90;;;26.50;95.00;;;;;;7409630;19;19935;-80
2023/08/14 07:38:31;;;;;;;9.57;2.90;;;26.50;94.60;;;;;;7415839;19;19950;-78
2023/08/14 07:40:58;;;;;;;8.23;3.20;;;26.40;95.20;;;;;;7414022;19;19918;-79
2023/08/14 07:43:24;;;;;;;7.95;2.45;;;26.50;94.50;;;;;;7411365;19;19960;-79
2023/08/14 07:45:52;;;;;;;7.53;2.92;;;26.60;94.20;;;;;;7414982;19;20319;-79
2023/08/14 07:48:18;;;;;;;8.20;2.90;;;26.40;95.00;;;;;;7409885;19;19978;-79
2023/08/14 07:50:44;;;;;;;7.47;3.00;;;26.50;94.50;;;;;;7413449;19;19939;-79
2023/08/14 07:53:10;;;;;;;7.40;2.70;;;26.70;94.20;;;;;;7411920;19;19954;-79
2023/08/14 07:55:36;;;;;;;6.95;2.85;;;26.70;93.10;;;;;;7412005;19;19944;-79
2023/08/14 07:58:03;;;;;;;6.13;2.65;;;26.90;92.50;;;;;;7411991;19;19982;-79
2023/08/14 08:00:29;;;;;;;9.32;3.15;;;27.00;92.70;;;;;;7411839;19;19918;-78
2023/08/14 08:02:55;;;;;;;11.40;2.50;;;26.90;93.20;;;;;;7410980;19;19925;-78
2023/08/14 08:05:21;;;;;;;4.82;2.03;;;26.80;92.90;;;;;;7408251;19;19923;-78
2023/08/14 08:07:47;;;;;;;5.43;2.15;;;26.80;91.90;;;;;;7409417;19;19923;-78
2023/08/14 08:10:13;;;;;;;9.95;2.67;;;26.90;91.70;;;;;;7407246;19;19941;-79
2023/08/14 08:12:40;;;;;;;6.65;2.30;;;27.00;91.30;;;;;;7411476;19;19935;-79
2023/08/14 08:15:06;;;;;;;5.90;2.30;;;26.90;91.40;;;;;;7410357;19;19923;-79
2023/08/14 08:17:32;;;;;;;5.60;2.83;;;27.00;92.10;;;;;;7412548;19;19915;-79
2023/08/14 08:19:58;;;;;;;7.80;2.33;;;27.10;91.90;;;;;;7417972;19;19939;-80
2023/08/14 08:22:24;;;;;;;6.97;1.83;;;27.10;90.90;;;;;;7418479;19;19919;-80
2023/08/14 08:24:49;;;;;;;7.75;2.53;;;26.90;90.80;;;;;;7425532;19;19919;-81
2023/08/14 08:27:15;;;;;;;7.82;2.85;;;27.20;91.40;;;;;;7424081;19;19953;-80
2023/08/14 08:29:41;;;;;;;6.38;2.20;;;27.50;91.00;;;;;;7426038;19;20558;-80
2023/08/14 08:32:08;;;;;;;5.55;3.10;;;27.50;90.90;;;;;;7424040;19;19951;-80
2023/08/14 08:34:35;;;;;;;7.82;2.60;;;27.40;91.20;;;;;;7423917;19;19932;-80
2023/08/14 08:37:01;;;;;;;6.30;2.72;;;27.60;91.10;;;;;;7424076;19;19923;-81
2023/08/14 08:39:26;;;;;;;5.93;2.92;;;27.70;90.50;;;;;;7421374;19;19919;-80
2023/08/14 08:41:55;;;;;;;8.90;3.85;;;27.60;90.70;;;;;;7423671;19;19929;-81
2023/08/14 08:44:32;;;;;;;7.63;4.20;;;28.60;87.90;;;;;;7421659;19;20006;-80
2023/08/14 08:47:02;;;;;;;7.85;3.65;;;29.80;83.30;;;;;;7423808;19;19943;-81
2023/08/14 08:49:30;;;;;;;5.97;3.50;;;30.40;80.90;;;;;;7423686;19;19914;-82
2023/08/14 08:51:56;;;;;;;8.60;4.72;;;30.90;77.20;;;;;;7400582;19;20720;-81
2023/08/14 08:54:22;;;;;;;6.70;4.28;;;31.40;75.20;;;;;;7421470;19;19931;-81
2023/08/14 08:56:48;;;;;;;7.28;4.38;;;31.20;74.20;;;;;;7422098;19;19917;-82
2023/08/14 08:59:15;;;;;;;;;;;31.90;71.90;;;;;;7423783;19;20280;-80
2023/08/14 09:01:41;;;;;;;6.50;4.07;;;31.90;72.30;;;;;;7423351;19;19938;-81
2023/08/14 09:04:08;;;;;;;7.38;3.75;;;31.40;73.50;;;;;;7422712;19;19918;-80
2023/08/14 09:06:34;;;;;;;8.32;3.25;;;31.00;75.20;;;;;;7423276;19;20278;-82
2023/08/14 09:08:59;;;;;;;7.20;4.00;;;30.60;76.70;;;;;;7423391;19;20262;-82
2023/08/14 09:11:25;;;;;;;;;;;30.80;76.50;;;;;;7425098;19;19926;-82
2023/08/14 09:13:52;;;;;;;9.05;4.45;;;30.80;74.70;;;;;;7426576;19;19942;-81
2023/08/14 09:16:18;;;;;;;6.63;4.28;;;31.20;75.50;;;;;;7419533;19;19906;-80
2023/08/14 09:18:45;;;;;;;9.55;5.30;;;31.80;72.60;;;;;;7421746;19;19959;-81
2023/08/14 09:21:12;;;;;;;11.63;3.42;;;31.70;71.90;;;;;;7418356;19;20274;-81
2023/08/14 09:23:42;;;;;;;6.95;3.95;;;33.10;70.10;;;;;;7401135;19;19919;-82
2023/08/14 09:26:10;;;;;;;7.05;4.25;;;33.40;69.90;;;;;;7422612;19;19920;-81
2023/08/14 09:28:37;;;;;;;9.63;3.50;;;34.20;68.40;;;;;;7425392;19;20254;-82
2023/08/14 09:31:12;;;;;;;8.95;5.30;;;33.80;69.10;;;;;;7421546;19;19914;-79
2023/08/14 09:33:42;;;;;;;5.95;4.55;;;33.60;71.30;;;;;;7420925;19;19918;-81
2023/08/14 09:36:09;;;;;;;8.45;5.47;;;34.10;70.10;;;;;;7417994;19;20011;-79
2023/08/14 09:38:36;;;;;;;10.38;4.78;;;34.60;68.50;;;;;;7424276;19;19919;-80
2023/08/14 09:41:02;;;;;;;9.38;4.28;;;33.80;68.80;;;;;;7420683;19;19942;-80
2023/08/14 09:43:29;;;;;;;7.45;5.68;;;32.70;72.10;;;;;;7421598;19;19913;-79
2023/08/14 09:45:57;;;;;;;11.05;5.55;;;33.00;73.70;;;;;;7419066;19;19918;-79
2023/08/14 09:48:44;;;;;;;9.10;5.32;;;33.20;72.30;;;;;;7419062;19;19957;-80
2023/08/14 09:51:23;;;;;;;8.80;5.18;;;33.90;70.70;;;;;;7420732;19;20454;-80
2023/08/14 09:53:56;;;;;;;10.40;5.20;;;33.50;71.30;;;;;;7424196;19;19903;-80
2023/08/14 09:56:23;;;;;;;8.80;5.45;;;33.00;71.60;;;;;;7420398;19;19934;-79
2023/08/14 09:58:50;;;;;;;9.63;4.90;;;33.40;72.50;;;;;;7419272;19;19990;-81
2023/08/14 10:01:18;;;;;;;9.13;4.57;;;34.00;70.70;;;;;;7424649;19;19948;-80
2023/08/14 10:03:49;;;;;;;7.47;3.22;;;34.50;67.40;;;;;;7415187;19;20537;-80
2023/08/14 10:06:16;;;;;;;11.30;5.80;;;35.00;66.30;;;;;;7418056;19;19923;-79
2023/08/14 10:08:49;;;;;;;8.82;5.15;;;34.90;66.30;;;;;;7421766;19;20497;-79
2023/08/14 10:11:18;;;;;;;7.25;4.03;;;35.30;65.60;;;;;;7421346;19;19919;-80
2023/08/14 10:13:50;;;;;;;7.35;4.53;;;35.30;64.20;;;;;;7419777;19;19930;-80
2023/08/14 10:16:27;;;;;;;9.52;4.93;;;35.10;64.20;;;;;;7420768;19;19911;-79
2023/08/14 10:18:57;;;;;;;11.32;5.88;;;35.00;64.50;;;;;;7423982;19;19911;-80
2023/08/14 10:21:31;;;;;;;7.90;5.00;;;33.20;67.90;;;;;;7420349;19;19935;-79
2023/08/14 10:24:02;;;;;;;8.27;5.07;;;33.50;69.80;;;;;;7420056;19;19949;-79
2023/08/14 10:26:28;;;;;;;5.53;3.40;;;33.90;68.20;;;;;;7418465;19;20233;-80
2023/08/14 10:28:57;;;;;;;7.07;4.55;;;32.00;71.70;;;;;;7423274;19;19944;-79
2023/08/14 10:31:24;;;;;;;7.85;4.30;;;32.00;74.60;;;;;;7418552;19;19926;-79
2023/08/14 10:33:51;;;;;;;8.48;4.40;;;31.40;77.00;;;;;;7421088;19;19946;-79
2023/08/14 10:36:22;;;;;;;8.82;4.30;;;31.00;79.80;;;;;;7420132;19;19928;-81
2023/08/14 10:38:49;;;;;;;6.32;4.40;;;31.00;79.90;;;;;;7422226;19;19915;-82
2023/08/14 10:41:17;;;;;;;11.18;4.57;;;31.80;78.20;;;;;;7420542;19;19918;-82
2023/08/14 10:43:47;;;;;;;8.48;4.53;;;32.00;76.40;;;;;;7423058;19;19914;-82
2023/08/14 10:46:16;;;;;;;9.40;5.65;;;31.90;76.50;;;;;;7418368;19;20254;-78
2023/08/14 10:48:43;;;;;;;8.02;3.72;;;32.00;76.80;;;;;;7423379;19;19939;-80
2023/08/14 10:51:12;;;;;;;6.70;4.10;;;32.40;75.20;;;;;;7420045;19;19937;-81
2023/08/14 10:53:40;;;;;;;8.30;5.97;;;33.50;72.30;;;;;;7419557;19;19915;-81
2023/08/14 10:56:06;;;;;;;7.43;3.28;;;33.20;72.00;;;;;;7419452;19;20287;-81
2023/08/14 10:58:35;;;;;;;7.43;4.40;;;32.40;74.60;;;;;;7417962;19;19919;-81
2023/08/14 11:01:09;;;;;;;6.28;4.60;;;32.30;75.80;;;;;;7418107;19;19922;-82
2023/08/14 11:03:54;;;;;;;9.05;4.47;;;32.70;75.20;;;;;;7416128;19;20000;-81
2023/08/14 11:06:45;;;;;;;10.13;4.35;;;32.80;72.90;;;;;;7418166;19;19918;-81
2023/08/14 11:09:11;;;;;;;9.13;4.03;;;32.70;74.10;;;;;;7415948;19;20370;-81
2023/08/14 11:11:43;;;;;;;6.53;3.92;;;33.00;73.20;;;;;;7419871;19;19911;-81
2023/08/14 11:14:09;;;;;;;8.85;4.25;;;32.20;76.10;;;;;;7419543;19;19919;-80
2023/08/14 11:16:35;;;;;;;9.50;4.80;;;32.90;74.30;;;;;;7416481;19;19922;-80
2023/08/14 11:19:01;;;;;;;9.30;4.35;;;33.40;72.90;;;;;;7418094;19;19922;-80
2023/08/14 11:21:27;;;;;;;6.43;3.78;;;33.70;72.00;;;;;;7417515;19;19918;-81
2023/08/14 11:23:53;;;;;;;8.07;4.25;;;33.10;72.50;;;;;;7415543;19;19918;-81
2023/08/14 11:26:19;;;;;;;7.53;4.25;;;33.50;72.20;;;;;;7418852;19;19924;-81
2023/08/14 11:28:45;;;;;;;9.25;4.72;;;33.80;70.30;;;;;;7418131;19;19922;-80
2023/08/14 11:31:12;;;;;;;6.32;3.65;;;33.30;71.20;;;;;;7417056;19;19923;-81
2023/08/14 11:33:38;;;;;;;5.45;3.75;;;32.90;72.30;;;;;;7417157;19;19918;-81
2023/08/14 11:36:08;;;;;;;8.85;4.07;;;33.60;71.60;;;;;;7415326;19;20331;-81
2023/08/14 11:38:34;;;;;;;8.82;5.07;;;34.20;69.70;;;;;;7414727;19;20433;-79
2023/08/14 11:41:00;;;;;;;10.43;4.40;;;34.90;67.90;;;;;;7394028;19;19921;-78
2023/08/14 11:43:25;;;;;;;9.68;4.53;;;34.90;67.10;;;;;;7414409;19;19931;-79
2023/08/14 11:45:52;;;;;;;10.20;4.70;;;34.80;67.50;;;;;;7415777;19;19925;-80
2023/08/14 11:48:19;;;;;;;6.75;4.47;;;34.50;67.00;;;;;;7415396;19;19955;-81
2023/08/14 11:50:48;;;;;;;6.47;4.43;;;34.50;66.70;;;;;;7416979;19;20026;-80
2023/08/14 11:53:14;;;;;;;9.38;5.32;;;35.10;66.20;;;;;;7418647;19;19922;-80
2023/08/14 11:55:42;;;;;;;7.82;4.68;;;35.60;64.70;;;;;;7419144;19;19914;-80
2023/08/14 11:58:08;;;;;;;7.72;4.43;;;35.40;64.60;;;;;;7423866;19;19918;-81
2023/08/14 12:00:34;;;;;;;13.70;4.93;;;33.90;66.50;;;;;;7426204;19;20010;-81
2023/08/14 12:03:00;;;;;;;7.82;4.97;;;33.30;69.90;;;;;;7429408;19;19926;-80
2023/08/14 12:05:27;;;;;;;8.45;4.35;;;34.60;67.70;;;;;;7423542;19;19925;-80
2023/08/14 12:07:59;;;;;;;7.93;4.07;;;35.20;65.70;;;;;;7425627;19;19940;-81
2023/08/14 12:10:30;;;;;;;7.05;4.38;;;35.10;65.30;;;;;;7423401;19;20002;-82
2023/08/14 12:12:56;;;;;;;6.20;4.93;;;35.10;65.10;;;;;;7425653;19;19945;-81
2023/08/14 12:15:22;;;;;;;7.03;4.85;;;34.90;66.00;;;;;;7423998;19;19938;-82
2023/08/14 12:17:48;;;;;;;8.82;4.40;;;35.20;65.20;;;;;;7424125;19;19914;-81
2023/08/14 12:20:16;;;;;;;7.47;4.72;;;35.20;64.50;;;;;;7418871;19;19947;-81
2023/08/14 12:22:42;;;;;;;6.45;4.93;;;34.80;65.30;;;;;;7423180;19;19914;-82
2023/08/14 12:25:08;;;;;;;6.32;4.05;;;35.60;64.40;;;;;;7421001;19;19918;-81
2023/08/14 12:27:34;;;;;;;9.57;4.43;;;34.20;64.50;;;;;;7423023;19;19914;-82
2023/08/14 12:30:01;;;;;;;6.53;5.75;;;35.40;64.50;;;;;;7422126;19;20294;-83
2023/08/14 12:32:27;;;;;;;7.97;3.90;;;35.50;62.80;;;;;;7421709;19;19931;-82
2023/08/14 12:34:54;;;;;;;8.23;4.35;;;35.80;62.40;;;;;;7400479;19;20262;-82
2023/08/14 12:37:20;;;;;;;6.32;4.25;;;36.00;61.50;;;;;;7419035;19;19914;-82
2023/08/14 12:39:55;;;;;;;5.65;3.20;;;36.10;60.80;;;;;;7424837;19;20623;-82
2023/08/14 12:42:24;;;;;;;6.32;5.20;;;34.70;61.80;;;;;;7420547;19;19955;-81
2023/08/14 12:44:53;;;;;;;6.43;3.65;;;33.90;64.50;;;;;;7424199;19;19910;-81
2023/08/14 12:47:18;;;;;;;7.88;4.80;;;34.70;64.50;;;;;;7420762;19;19915;-80